Data for 09/02/2018

Time Sea-Level Adjusted Pressure Absolute Pressure Temperature Relative Humidity Dew Point   
(mb) (inHg) (mb) (inHg) (C) (F) (%) (C) (F)
00:05 1020 30.12 849 25.07 13.2 55.8 38 -0.7 30.7
00:10 1020 30.12 849 25.07 13.7 56.6 36 -1 30.1
00:15 1020 30.12 849 25.07 14.1 57.3 36 -0.7 30.7
00:20 1020 30.12 849 25.07 14 57.2 36 -0.8 30.6
00:25 1020 30.12 849 25.07 13.8 56.8 38 -0.3 31.4
00:30 1020 30.12 849 25.07 13.5 56.4 37 -0.7 30.8
00:35 1020 30.12 849 25.07 13.8 56.8 37 -0.7 30.8
00:40 1020 30.12 849 25.07 13.7 56.7 37 -0.8 30.6
00:45 1020 30.12 850 25.1 13.7 56.7 37 -0.8 30.6
00:50 1020 30.12 850 25.1 13.7 56.6 37 -0.7 30.8
00:55 1020 30.12 850 25.1 13.6 56.4 38 -0.5 31.1
01:00 1020 30.12 850 25.1 13.5 56.3 37 -0.7 30.7
01:05 1020 30.12 850 25.1 13.6 56.4 38 -0.4 31.2
01:10 1020 30.12 850 25.1 13.5 56.2 38 -0.6 30.9
01:15 1020 30.12 850 25.1 13.5 56.3 38 -0.6 31
01:20 1020 30.12 850 25.1 13.4 56.1 38 -0.6 31
01:25 1021 30.15 850 25.1 13.3 56 39 -0.4 31.2
01:30 1021 30.15 850 25.1 13.3 56 38 -0.6 30.9
01:35 1021 30.15 850 25.1 13.3 55.9 38 -0.5 31.1
01:40 1021 30.15 850 25.1 13.3 55.9 38 -0.5 31.1
01:45 1021 30.15 850 25.1 13.2 55.8 38 -0.6 31
01:50 1020 30.12 850 25.1 13.2 55.7 39 -0.4 31.3
01:55 1021 30.15 850 25.1 13 55.4 39 -0.5 31.2
02:00 1020 30.12 850 25.1 13 55.4 39 -0.5 31.1
02:05 1020 30.12 850 25.1 13 55.4 39 -0.4 31.3
02:10 1020 30.12 850 25.1 12.9 55.3 40 -0.4 31.3
02:15 1020 30.12 850 25.1 12.8 55 40 -0.3 31.4
02:20 1020 30.12 849 25.07 12.7 54.9 40 -0.3 31.4
02:25 1020 30.12 849 25.07 12.7 54.9 40 -0.4 31.4
02:30 1020 30.12 849 25.07 12.6 54.8 41 -0.2 31.6
02:35 1020 30.12 849 25.07 12.6 54.6 41 -0.3 31.4
02:40 1020 30.12 849 25.07 12.5 54.5 42 -0.2 31.7
02:45 1020 30.12 849 25.07 12.4 54.3 41 -0.3 31.4
02:50 1020 30.12 849 25.07 12.4 54.4 41 -0.2 31.6
02:55 1020 30.12 849 25.07 12.4 54.4 41 -0.4 31.3
03:00 1020 30.12 849 25.07 12.4 54.2 42 -0.3 31.5
03:05 1020 30.12 849 25.07 12.4 54.3 41 -0.3 31.4
03:10 1020 30.12 849 25.07 12.5 54.5 41 -0.4 31.3
03:15 1020 30.12 849 25.07 12.5 54.4 41 -0.3 31.5
03:20 1020 30.12 850 25.1 12.4 54.2 42 -0.2 31.6
03:25 1020 30.12 850 25.1 12.2 53.9 42 -0.1 31.8
03:30 1020 30.12 849 25.07 12.1 53.9 43 -0.1 31.8
03:35 1020 30.12 849 25.07 12.1 53.7 42 -0.3 31.5
03:40 1020 30.12 849 25.07 12.1 53.8 42 -0.3 31.5
03:45 1020 30.12 849 25.07 12.1 53.7 43 -0.2 31.7
03:50 1020 30.12 849 25.07 12 53.6 43 -0.1 31.8
03:55 1020 30.12 849 25.07 11.9 53.5 43 -0.1 31.8
04:00 1020 30.12 849 25.07 11.8 53.2 44 0.1 32.1
04:05 1020 30.12 849 25.07 11.5 52.8 45 0.1 32.3
04:10 1020 30.12 849 25.07 11.3 52.3 46 0.1 32.2
04:15 1020 30.12 849 25.07 11 51.9 47 0.1 32.3
04:20 1020 30.12 849 25.07 10.9 51.6 48 0.2 32.4
04:25 1020 30.12 849 25.07 10.6 51.1 49 0.3 32.5
04:30 1020 30.12 849 25.07 10.4 50.8 49 0.3 32.6
04:35 1020 30.12 849 25.07 10.2 50.4 50 0.3 32.6
04:40 1020 30.12 849 25.07 10.1 50.2 50 0.3 32.5
04:45 1020 30.12 849 25.07 10 50 51 0.4 32.7
04:50 1020 30.12 849 25.07 9.8 49.6 54 0.8 33.5
04:55 1020 30.12 849 25.07 9.1 48.4 56 0.8 33.4
05:00 1020 30.12 849 25.07 9 48.2 55 0.5 32.9
05:05 1020 30.12 849 25.07 9.2 48.5 55 0.6 33
05:10 1020 30.12 850 25.1 9.1 48.3 55 0.6 33
05:15 1020 30.12 850 25.1 9 48.2 55 0.5 32.9
05:20 1020 30.12 850 25.1 9 48.2 55 0.4 32.7
05:25 1020 30.12 850 25.1 9 48.2 55 0.5 32.9
05:30 1020 30.12 850 25.1 9 48.3 54 0.3 32.6
05:35 1020 30.12 850 25.1 9.1 48.4 54 0.4 32.7
05:40 1020 30.12 850 25.1 9 48.1 55 0.6 33
05:45 1020 30.12 850 25.1 8.7 47.6 56 0.4 32.7
05:50 1020 30.12 850 25.1 8.6 47.4 57 0.6 33
05:55 1020 30.12 850 25.1 8.6 47.5 55 0.1 32.2
06:00 1020 30.12 850 25.1 8.7 47.7 56 0.4 32.7
06:05 1020 30.12 850 25.1 8.9 48 55 0.3 32.6
06:10 1020 30.12 850 25.1 8.8 47.8 55 0.4 32.7
06:15 1020 30.12 850 25.1 8.7 47.7 56 0.4 32.7
06:20 1020 30.12 850 25.1 8.6 47.5 56 0.4 32.6
06:25 1020 30.12 850 25.1 8.5 47.3 57 0.6 33
06:30 1020 30.12 850 25.1 8.2 46.8 58 0.6 33
06:35 1020 30.12 850 25.1 8.2 46.7 58 0.4 32.7
06:40 1020 30.12 850 25.1 8.2 46.8 58 0.5 32.8
06:45 1020 30.12 850 25.1 8.1 46.6 58 0.3 32.5
06:50 1020 30.12 850 25.1 8.2 46.7 58 0.4 32.8
06:55 1020 30.12 850 25.1 8.1 46.5 59 0.6 33.1
07:00 1020 30.12 850 25.1 7.8 46.1 60 0.5 33
07:05 1020 30.12 850 25.1 7.8 46 60 0.4 32.7
07:10 1020 30.12 850 25.1 7.9 46.2 59 0.4 32.7
07:15 1021 30.15 850 25.1 8.1 46.6 58 0.3 32.5
07:20 1021 30.15 850 25.1 8.4 47.2 56 0.2 32.4
07:25 1021 30.15 850 25.1 8.8 47.8 55 0.3 32.5
07:30 1021 30.15 850 25.1 9 48.2 54 0.3 32.5
07:35 1021 30.15 850 25.1 9.2 48.6 54 0.3 32.6
07:40 1021 30.15 850 25.1 9.4 48.9 53 0.3 32.6
07:45 1021 30.15 850 25.1 9.4 49 53 0.5 32.8
07:50 1021 30.15 850 25.1 9.5 49.1 54 0.6 33.1
07:55 1021 30.15 850 25.1 9.7 49.4 53 0.6 33.1
08:00 1021 30.15 850 25.1 9.9 49.8 54 1 33.7
08:05 1021 30.15 850 25.1 10 50 53 1 33.8
08:10 1021 30.15 850 25.1 10.3 50.5 52 1 33.9
08:15 1021 30.15 850 25.1 10.7 51.2 52 1.1 34
08:20 1021 30.15 850 25.1 11 51.8 50 1 33.7
08:25 1021 30.15 850 25.1 11.3 52.3 51 1.4 34.6
08:30 1021 30.15 850 25.1 11.4 52.4 50 1.4 34.5
08:35 1021 30.15 850 25.1 11.5 52.7 50 1.5 34.7
08:40 1021 30.15 850 25.1 11.9 53.3 48 1.4 34.5
08:45 1021 30.15 850 25.1 12 53.5 47 1 33.9
08:50 1021 30.15 850 25.1 12.2 53.9 47 1.1 34
08:55 1021 30.15 850 25.1 12.5 54.5 47 1.5 34.6
09:00 1021 30.15 850 25.1 13 55.4 45 1.3 34.4
09:05 1021 30.15 850 25.1 13.5 56.4 43 1.3 34.3
09:10 1021 30.15 850 25.1 13.7 56.6 43 1.3 34.3
09:15 1021 30.15 850 25.1 14.4 58 42 1.7 35.1
09:20 1021 30.15 850 25.1 14.8 58.6 41 1.6 34.9
09:25 1020 30.12 850 25.1 14.6 58.2 41 1.6 34.9
09:30 1020 30.12 850 25.1 14.8 58.7 40 1.6 34.9
09:35 1020 30.12 850 25.1 15.3 59.5 39 1.6 34.9
09:40 1020 30.12 850 25.1 15.3 59.6 39 1.4 34.6
09:45 1020 30.12 850 25.1 15.2 59.4 39 1.5 34.6
09:50 1020 30.12 850 25.1 15.5 60 37 1 33.8
09:55 1020 30.12 849 25.07 16.5 61.6 36 1.3 34.4
10:00 1020 30.12 849 25.07 16.7 62.1 34 0.9 33.7
10:05 1020 30.12 849 25.07 17.4 63.3 34 1.7 35
10:10 1020 30.12 850 25.1 17.1 62.8 34 1.2 34.1
10:15 1020 30.12 850 25.1 17.1 62.8 33 1 33.8
10:20 1020 30.12 850 25.1 17.5 63.5 33 1.4 34.5
10:25 1020 30.12 850 25.1 16.5 61.8 34 0.7 33.3
10:30 1020 30.12 850 25.1 16.9 62.4 33 0.8 33.4
10:35 1020 30.12 850 25.1 17.5 63.5 31 0.2 32.4
10:40 1020 30.12 850 25.1 17.3 63.2 33 1.1 34.1
10:45 1020 30.12 850 25.1 17.2 62.9 32 0.5 32.9
10:50 1020 30.12 850 25.1 18 64.4 30 0.4 32.8
10:55 1020 30.12 850 25.1 18.3 64.9 32 1.4 34.5
11:00 1020 30.12 849 25.07 17.5 63.6 33 1.1 34.1
11:05 1020 30.12 849 25.07 18 64.3 32 1 33.8
11:10 1020 30.12 849 25.07 18.4 65.2 29 0.3 32.6
11:15 1020 30.12 849 25.07 19 66.3 29 0.5 33
11:20 1020 30.12 849 25.07 19.1 66.4 30 1.3 34.3
11:25 1020 30.12 849 25.07 19.1 66.3 29 0.7 33.3
11:30 1020 30.12 849 25.07 19 66.2 30 1 33.7
11:35 1020 30.12 849 25.07 19.3 66.7 29 0.8 33.5
11:40 1020 30.12 849 25.07 19 66.1 29 0.9 33.6
11:45 1020 30.12 849 25.07 19.1 66.4 28 0.3 32.5
11:50 1020 30.12 849 25.07 19.3 66.8 28 0.5 32.9
11:55 1020 30.12 849 25.07 19.6 67.3 27 0.4 32.6
12:00 1020 30.12 849 25.07 20 67.9 27 0.7 33.3
12:05 1020 30.12 849 25.07 19.2 66.5 29 0.6 33.2
12:10 1019 30.09 849 25.07 19.8 67.6 27 0.4 32.7
12:15 1019 30.09 849 25.07 19.5 67.2 27 0.1 32.3
12:20 1019 30.09 849 25.07 20.3 68.5 27 0.6 33.1
12:25 1019 30.09 849 25.07 21 69.8 26 0.7 33.2
12:30 1019 30.09 849 25.07 21.1 70 25 0.4 32.8
12:35 1019 30.09 849 25.07 21.2 70.2 26 1 33.9
12:40 1019 30.09 849 25.07 20.3 68.6 27 1.1 33.9
12:45 1019 30.09 849 25.07 19.9 67.9 27 0.6 33.1
12:50 1019 30.09 849 25.07 20.8 69.4 24 -0.5 31.1
12:55 1019 30.09 849 25.07 21.3 70.3 24 -0.1 31.8
13:00 1019 30.09 848 25.04 21.7 71 23 0.1 32.2
13:05 1019 30.09 848 25.04 21.6 70.9 24 0.5 33
13:10 1019 30.09 848 25.04 21.5 70.7 23 -0.5 31.1
13:15 1019 30.09 848 25.04 21.7 71.1 22 -0.7 30.7
13:20 1019 30.09 848 25.04 22 71.6 23 0.1 32.1
13:25 1019 30.09 848 25.04 21.9 71.5 23 -0.1 31.9
13:30 1019 30.09 848 25.04 22.3 72.2 23 0.4 32.8
13:35 1019 30.09 848 25.04 22.7 72.9 22 -0.1 31.8
13:40 1019 30.09 848 25.04 22.7 72.8 22 0.2 32.4
13:45 1019 30.09 848 25.04 22.3 72.2 21 -0.6 30.9
13:50 1019 30.09 848 25.04 22.7 72.9 22 -0 32
13:55 1019 30.09 848 25.04 22.7 72.8 22 -0.1 31.8
14:00 1019 30.09 848 25.04 22.9 73.2 22 0.1 32.1
14:05 1019 30.09 848 25.04 22.3 72.1 23 0.2 32.3
14:10 1019 30.09 848 25.04 22.2 71.9 22 -0 31.9
14:15 1019 30.09 848 25.04 22.4 72.3 22 -0 32
14:20 1019 30.09 848 25.04 22.2 71.9 22 -0.1 31.7
14:25 1019 30.09 848 25.04 22.8 73 21 -0.3 31.5
14:30 1019 30.09 848 25.04 23.6 74.4 20 -0.2 31.6
14:35 1019 30.09 848 25.04 22.6 72.7 23 0.9 33.6
14:40 1019 30.09 848 25.04 21.6 70.9 24 0.6 33.1
14:45 1019 30.09 848 25.04 22.5 72.5 21 -0.4 31.3
14:50 1019 30.09 848 25.04 23.6 74.4 22 0.7 33.3
14:55 1019 30.09 848 25.04 23.7 74.6 23 1.4 34.5
15:00 1019 30.09 848 25.04 23.5 74.4 22 0.5 32.9
15:05 1019 30.09 848 25.04 24 75.3 21 0.6 33.1
15:10 1019 30.09 848 25.04 24.6 76.2 21 0.9 33.7
15:15 1018 30.06 848 25.04 24.5 76 20 0.3 32.5
15:20 1018 30.06 848 25.04 24.5 76 21 0.6 33.1
15:25 1018 30.06 848 25.04 24.3 75.8 20 0.5 32.8
15:30 1018 30.06 847 25.01 24.4 75.8 20 0.3 32.5
15:35 1018 30.06 847 25.01 24.2 75.5 22 1.1 34
15:40 1018 30.06 847 25.01 24.2 75.5 21 0.7 33.3
15:45 1018 30.06 847 25.01 24.5 76.2 21 0.9 33.7
15:50 1018 30.06 847 25.01 24.7 76.4 20 0.6 33.1
15:55 1018 30.06 847 25.01 24.6 76.3 20 0.3 32.6
16:00 1018 30.06 847 25.01 24.5 76.2 20 0.4 32.8
16:05 1018 30.06 847 25.01 24.7 76.4 20 0.8 33.4
16:10 1018 30.06 847 25.01 25 77 20 0.6 33.1
16:15 1018 30.06 847 25.01 24.9 76.8 19 0.1 32.3
16:20 1018 30.06 847 25.01 24.3 75.8 20 -0 32
16:25 1018 30.06 847 25.01 23.5 74.3 20 -0.6 31
16:30 1018 30.06 847 25.01 23.9 75 21 0.4 32.6
16:35 1018 30.06 847 25.01 24.6 76.4 19 -0.2 31.6
16:40 1018 30.06 847 25.01 24.9 76.9 20 0.6 33.1
16:45 1018 30.06 847 25.01 25.1 77.3 19 0 32.1
16:50 1018 30.06 847 25.01 24.8 76.6 19 -0.4 31.3
16:55 1018 30.06 847 25.01 25 76.9 20 0.7 33.2
17:00 1018 30.06 847 25.01 25.1 77.1 18 -0.3 31.5
17:05 1018 30.06 847 25.01 24.8 76.6 19 -0.1 31.7
17:10 1018 30.06 847 25.01 24.5 76 20 0.4 32.7
17:15 1018 30.06 847 25.01 24.4 75.9 19 -0.2 31.7
17:20 1018 30.06 847 25.01 24.1 75.5 19 -0.5 31.2
17:25 1018 30.06 847 25.01 23.4 74.1 20 -0.6 30.9
17:30 1018 30.06 847 25.01 24.3 75.8 20 -0 31.9
17:35 1018 30.06 847 25.01 24.8 76.6 18 -1.1 29.9
17:40 1018 30.06 847 25.01 25 77 18 -0.4 31.2
17:45 1018 30.06 847 25.01 23.7 74.7 20 -0.2 31.7
17:50 1018 30.06 847 25.01 23.8 74.8 19 -0.8 30.5
17:55 1018 30.06 847 25.01 23.9 74.9 19 -0.9 30.3
18:00 1018 30.06 847 25.01 24.2 75.6 18 -1.2 29.9
18:05 1018 30.06 847 25.01 23.8 74.9 20 -0.3 31.4
18:10 1018 30.06 847 25.01 23.4 74 18 -1.8 28.8
18:15 1018 30.06 847 25.01 23.4 74 21 -0.1 31.8
18:20 1018 30.06 847 25.01 23.4 74.2 19 -1.4 29.4
18:25 1018 30.06 847 25.01 23.5 74.2 19 -1.3 29.6
18:30 1018 30.06 847 25.01 23.5 74.3 18 -2.2 28
18:35 1018 30.06 847 25.01 23.4 74.1 18 -2 28.3
18:40 1018 30.06 847 25.01 23.3 74 19 -1.2 29.9
18:45 1018 30.06 847 25.01 23.3 74 19 -1.6 29.2
18:50 1018 30.06 847 25.01 23.3 73.9 20 -0.9 30.4
18:55 1018 30.06 847 25.01 23.2 73.7 18 -2.1 28.2
19:00 1018 30.06 847 25.01 23 73.3 19 -1.9 28.5
19:05 1018 30.06 847 25.01 22.9 73.1 20 -1.2 29.8
19:10 1018 30.06 847 25.01 22.9 73.2 20 -1.1 30.1
19:15 1018 30.06 847 25.01 22.9 73.1 20 -1.4 29.6
19:20 1018 30.06 847 25.01 22.8 73 22 0.2 32.3
19:25 1018 30.06 847 25.01 22.7 72.9 20 -1.1 30
19:30 1018 30.06 847 25.01 22.6 72.7 19 -1.6 29.1
19:35 1018 30.06 847 25.01 22.5 72.5 20 -1.2 29.9
19:40 1018 30.06 847 25.01 22.5 72.4 21 -1 30.1
19:45 1018 30.06 847 25.01 22.3 72.1 26 2.2 36
19:50 1018 30.06 847 25.01 21.1 70.1 31 3.4 38.2
19:55 1018 30.06 847 25.01 20.3 68.5 31 2.8 37
20:00 1018 30.06 847 25.01 20 67.9 31 2.6 36.7
20:05 1018 30.06 847 25.01 19.5 67.1 33 3 37.3
20:10 1018 30.06 847 25.01 19 66.2 34 2.8 37.1
20:15 1018 30.06 847 25.01 18.6 65.4 36 3.2 37.7
20:20 1018 30.06 847 25.01 18.2 64.7 35 2.8 37
20:25 1018 30.06 847 25.01 17.8 64.1 37 2.9 37.2
20:30 1018 30.06 847 25.01 17.5 63.5 38 3.1 37.6
20:35 1018 30.06 847 25.01 17.2 62.9 39 3.1 37.6
20:40 1018 30.06 847 25.01 16.9 62.5 39 3.2 37.7
20:45 1018 30.06 847 25.01 16.7 62.1 39 2.8 37
20:50 1018 30.06 847 25.01 16.5 61.7 40 2.8 37.1
20:55 1018 30.06 848 25.04 16.3 61.4 41 3.3 37.9
21:00 1018 30.06 848 25.04 15.8 60.5 41 2.8 37
21:05 1019 30.09 848 25.04 15.6 60.2 38 1.6 34.9
21:10 1019 30.09 848 25.04 16 60.8 35 0.7 33.3
21:15 1019 30.09 848 25.04 16.3 61.3 34 0.7 33.2
21:20 1019 30.09 848 25.04 15.8 60.5 38 1.5 34.7
21:25 1019 30.09 848 25.04 15.5 59.8 37 1.1 34
21:30 1019 30.09 848 25.04 15.1 59.2 39 1.3 34.4
21:35 1019 30.09 848 25.04 15 59 38 0.9 33.7
21:40 1019 30.09 848 25.04 15.1 59.3 37 0.5 32.9
21:45 1019 30.09 848 25.04 15.4 59.7 36 0.4 32.8
21:50 1019 30.09 848 25.04 15.6 60.1 34 0 32
21:55 1019 30.09 848 25.04 15.7 60.2 34 -0 31.9
22:00 1019 30.09 848 25.04 15.7 60.2 35 0.4 32.8
22:05 1019 30.09 848 25.04 15.4 59.8 38 1.3 34.3
22:10 1019 30.09 848 25.04 15.2 59.3 40 1.7 35
22:15 1019 30.09 848 25.04 15.1 59.1 40 1.6 34.9
22:20 1019 30.09 848 25.04 14.8 58.7 42 2.1 35.8
22:25 1019 30.09 848 25.04 14.6 58.3 43 2.2 35.9
22:30 1019 30.09 848 25.04 14.5 58.2 44 2.4 36.3
22:35 1019 30.09 848 25.04 14.6 58.2 45 2.7 36.9
22:40 1019 30.09 848 25.04 14.3 57.8 46 2.8 37
22:45 1019 30.09 848 25.04 13.9 56.9 46 2.5 36.5
22:50 1019 30.09 848 25.04 13.4 56.1 48 2.8 37
22:55 1019 30.09 848 25.04 12.9 55.2 47 1.9 35.5
23:00 1019 30.09 848 25.04 12.9 55.2 49 2.4 36.4
23:05 1019 30.09 848 25.04 12.6 54.7 50 2.7 36.8
23:10 1019 30.09 848 25.04 12.5 54.6 51 2.6 36.7
23:15 1019 30.09 848 25.04 12.7 54.9 49 2.5 36.4
23:20 1019 30.09 848 25.04 12.8 55 49 2.4 36.3
23:25 1019 30.09 848 25.04 12.8 55 49 2.3 36.1
23:30 1019 30.09 848 25.04 13 55.3 45 1.4 34.6
23:35 1019 30.09 848 25.04 13.4 56 45 1.8 35.2
23:40 1019 30.09 848 25.04 13.2 55.8 46 2 35.6
23:45 1019 30.09 848 25.04 12.9 55.2 48 2.1 35.8
23:50 1019 30.09 848 25.04 12.5 54.5 50 2.4 36.4
23:55 1019 30.09 849 25.07 11.9 53.5 53 2.7 36.8
24:00 1019 30.09 848 25.04 11.6 52.9 53 2.5 36.5